sensor_id;sensor_type;location;lat;lon;timestamp;P1;durP1;ratioP1;P2;durP2;ratioP2
18931;SDS011;9598;50.954;3.112;2023-05-14T00:02:22;34.75;;;27.98;;
18931;SDS011;9598;50.954;3.112;2023-05-14T00:07:25;36.28;;;30.25;;
18931;SDS011;9598;50.954;3.112;2023-05-14T00:12:31;32.30;;;28.75;;
18931;SDS011;9598;50.954;3.112;2023-05-14T00:17:33;35.47;;;29.35;;
18931;SDS011;9598;50.954;3.112;2023-05-14T00:22:35;35.75;;;30.08;;
18931;SDS011;9598;50.954;3.112;2023-05-14T00:27:38;38.17;;;30.27;;
18931;SDS011;9598;50.954;3.112;2023-05-14T00:32:41;35.65;;;30.83;;
18931;SDS011;9598;50.954;3.112;2023-05-14T00:37:43;34.40;;;28.85;;
18931;SDS011;9598;50.954;3.112;2023-05-14T00:42:46;33.53;;;29.85;;
18931;SDS011;9598;50.954;3.112;2023-05-14T00:47:48;39.13;;;30.60;;
18931;SDS011;9598;50.954;3.112;2023-05-14T00:52:51;36.03;;;29.73;;
18931;SDS011;9598;50.954;3.112;2023-05-14T00:57:54;31.20;;;25.90;;
18931;SDS011;9598;50.954;3.112;2023-05-14T01:02:59;34.42;;;28.40;;
18931;SDS011;9598;50.954;3.112;2023-05-14T01:08:06;34.40;;;28.42;;
18931;SDS011;9598;50.954;3.112;2023-05-14T01:13:16;35.20;;;29.35;;
18931;SDS011;9598;50.954;3.112;2023-05-14T01:18:24;34.72;;;29.73;;
18931;SDS011;9598;50.954;3.112;2023-05-14T01:23:33;33.70;;;27.88;;
18931;SDS011;9598;50.954;3.112;2023-05-14T01:28:35;34.17;;;29.30;;
18931;SDS011;9598;50.954;3.112;2023-05-14T01:33:38;40.38;;;30.20;;
18931;SDS011;9598;50.954;3.112;2023-05-14T01:38:45;38.25;;;30.58;;
18931;SDS011;9598;50.954;3.112;2023-05-14T01:43:50;35.30;;;31.45;;
18931;SDS011;9598;50.954;3.112;2023-05-14T01:48:53;38.42;;;32.53;;
18931;SDS011;9598;50.954;3.112;2023-05-14T01:53:56;39.92;;;33.47;;
18931;SDS011;9598;50.954;3.112;2023-05-14T01:58:58;44.53;;;35.05;;
18931;SDS011;9598;50.954;3.112;2023-05-14T02:04:00;48.30;;;36.78;;
18931;SDS011;9598;50.954;3.112;2023-05-14T02:09:04;46.97;;;38.72;;
18931;SDS011;9598;50.954;3.112;2023-05-14T02:14:07;45.50;;;36.67;;
18931;SDS011;9598;50.954;3.112;2023-05-14T02:19:09;43.20;;;35.47;;
18931;SDS011;9598;50.954;3.112;2023-05-14T02:24:12;49.67;;;38.47;;
18931;SDS011;9598;50.954;3.112;2023-05-14T02:29:14;46.20;;;37.42;;
18931;SDS011;9598;50.954;3.112;2023-05-14T02:34:16;48.40;;;37.95;;
18931;SDS011;9598;50.954;3.112;2023-05-14T02:39:20;43.60;;;36.35;;
18931;SDS011;9598;50.954;3.112;2023-05-14T02:44:22;44.35;;;36.45;;
18931;SDS011;9598;50.954;3.112;2023-05-14T02:49:24;41.13;;;34.38;;
18931;SDS011;9598;50.954;3.112;2023-05-14T02:54:28;42.25;;;33.22;;
18931;SDS011;9598;50.954;3.112;2023-05-14T02:59:30;35.75;;;31.00;;
18931;SDS011;9598;50.954;3.112;2023-05-14T03:04:32;39.08;;;30.77;;
18931;SDS011;9598;50.954;3.112;2023-05-14T03:09:35;39.17;;;32.05;;
18931;SDS011;9598;50.954;3.112;2023-05-14T03:14:37;37.92;;;31.48;;
18931;SDS011;9598;50.954;3.112;2023-05-14T03:19:39;41.97;;;31.80;;
18931;SDS011;9598;50.954;3.112;2023-05-14T03:24:43;37.15;;;31.38;;
18931;SDS011;9598;50.954;3.112;2023-05-14T03:29:45;38.97;;;31.45;;
18931;SDS011;9598;50.954;3.112;2023-05-14T03:34:47;36.47;;;30.50;;
18931;SDS011;9598;50.954;3.112;2023-05-14T03:39:51;38.08;;;32.38;;
18931;SDS011;9598;50.954;3.112;2023-05-14T03:44:53;39.33;;;32.30;;
18931;SDS011;9598;50.954;3.112;2023-05-14T03:49:55;37.05;;;30.45;;
18931;SDS011;9598;50.954;3.112;2023-05-14T03:55:00;41.78;;;31.98;;
18931;SDS011;9598;50.954;3.112;2023-05-14T04:00:02;40.58;;;32.55;;
18931;SDS011;9598;50.954;3.112;2023-05-14T04:05:16;37.58;;;32.75;;
18931;SDS011;9598;50.954;3.112;2023-05-14T04:10:20;41.38;;;33.75;;
18931;SDS011;9598;50.954;3.112;2023-05-14T04:15:22;42.70;;;34.35;;
18931;SDS011;9598;50.954;3.112;2023-05-14T04:20:25;43.72;;;34.50;;
18931;SDS011;9598;50.954;3.112;2023-05-14T04:25:29;45.13;;;37.42;;
18931;SDS011;9598;50.954;3.112;2023-05-14T04:30:31;43.53;;;38.38;;
18931;SDS011;9598;50.954;3.112;2023-05-14T04:35:33;45.47;;;37.55;;
18931;SDS011;9598;50.954;3.112;2023-05-14T04:40:37;40.35;;;34.22;;
18931;SDS011;9598;50.954;3.112;2023-05-14T04:45:39;37.45;;;30.63;;
18931;SDS011;9598;50.954;3.112;2023-05-14T04:50:42;47.38;;;33.38;;
18931;SDS011;9598;50.954;3.112;2023-05-14T04:55:45;38.63;;;30.90;;
18931;SDS011;9598;50.954;3.112;2023-05-14T05:00:48;36.00;;;30.63;;
18931;SDS011;9598;50.954;3.112;2023-05-14T05:05:50;34.22;;;29.65;;
18931;SDS011;9598;50.954;3.112;2023-05-14T05:10:53;40.38;;;30.90;;
18931;SDS011;9598;50.954;3.112;2023-05-14T05:15:55;38.25;;;29.42;;
18931;SDS011;9598;50.954;3.112;2023-05-14T05:20:57;33.00;;;29.38;;
18931;SDS011;9598;50.954;3.112;2023-05-14T05:26:01;34.88;;;30.02;;
18931;SDS011;9598;50.954;3.112;2023-05-14T05:31:03;34.42;;;30.73;;
18931;SDS011;9598;50.954;3.112;2023-05-14T05:36:05;36.53;;;31.00;;
18931;SDS011;9598;50.954;3.112;2023-05-14T05:41:09;34.47;;;29.80;;
18931;SDS011;9598;50.954;3.112;2023-05-14T05:46:11;37.45;;;31.67;;
18931;SDS011;9598;50.954;3.112;2023-05-14T05:51:13;37.83;;;33.72;;
18931;SDS011;9598;50.954;3.112;2023-05-14T05:56:17;38.33;;;32.35;;
18931;SDS011;9598;50.954;3.112;2023-05-14T06:01:19;34.15;;;30.20;;
18931;SDS011;9598;50.954;3.112;2023-05-14T06:06:21;32.90;;;29.35;;
18931;SDS011;9598;50.954;3.112;2023-05-14T06:11:25;35.33;;;29.83;;
18931;SDS011;9598;50.954;3.112;2023-05-14T06:16:27;38.63;;;30.73;;
18931;SDS011;9598;50.954;3.112;2023-05-14T06:21:29;42.13;;;34.58;;
18931;SDS011;9598;50.954;3.112;2023-05-14T06:26:32;39.75;;;34.28;;
18931;SDS011;9598;50.954;3.112;2023-05-14T06:31:34;38.15;;;34.15;;
18931;SDS011;9598;50.954;3.112;2023-05-14T06:36:36;36.22;;;31.42;;
18931;SDS011;9598;50.954;3.112;2023-05-14T06:41:40;34.83;;;30.30;;
18931;SDS011;9598;50.954;3.112;2023-05-14T06:46:47;35.25;;;30.73;;
18931;SDS011;9598;50.954;3.112;2023-05-14T06:51:50;34.13;;;30.42;;
18931;SDS011;9598;50.954;3.112;2023-05-14T06:56:54;35.05;;;31.33;;
18931;SDS011;9598;50.954;3.112;2023-05-14T07:01:56;33.20;;;29.73;;
18931;SDS011;9598;50.954;3.112;2023-05-14T07:06:58;34.72;;;30.73;;
18931;SDS011;9598;50.954;3.112;2023-05-14T07:12:02;36.92;;;31.10;;
18931;SDS011;9598;50.954;3.112;2023-05-14T07:17:05;33.65;;;28.42;;
18931;SDS011;9598;50.954;3.112;2023-05-14T07:22:07;28.10;;;25.08;;
18931;SDS011;9598;50.954;3.112;2023-05-14T07:27:10;32.15;;;27.52;;
18931;SDS011;9598;50.954;3.112;2023-05-14T07:32:12;28.35;;;25.52;;
18931;SDS011;9598;50.954;3.112;2023-05-14T07:37:14;28.42;;;25.67;;
18931;SDS011;9598;50.954;3.112;2023-05-14T07:42:18;29.67;;;26.50;;
18931;SDS011;9598;50.954;3.112;2023-05-14T07:47:20;30.50;;;27.23;;
18931;SDS011;9598;50.954;3.112;2023-05-14T07:52:22;31.95;;;28.55;;
18931;SDS011;9598;50.954;3.112;2023-05-14T07:57:26;29.02;;;25.33;;
18931;SDS011;9598;50.954;3.112;2023-05-14T08:02:28;27.48;;;24.52;;
18931;SDS011;9598;50.954;3.112;2023-05-14T08:07:30;27.00;;;24.40;;
18931;SDS011;9598;50.954;3.112;2023-05-14T08:12:34;29.50;;;25.77;;
18931;SDS011;9598;50.954;3.112;2023-05-14T08:17:36;26.52;;;23.80;;
18931;SDS011;9598;50.954;3.112;2023-05-14T08:22:38;27.33;;;24.33;;
18931;SDS011;9598;50.954;3.112;2023-05-14T08:27:41;27.85;;;24.90;;
18931;SDS011;9598;50.954;3.112;2023-05-14T08:32:44;28.20;;;24.77;;
18931;SDS011;9598;50.954;3.112;2023-05-14T08:37:46;28.08;;;25.10;;
18931;SDS011;9598;50.954;3.112;2023-05-14T08:42:51;27.80;;;24.95;;
18931;SDS011;9598;50.954;3.112;2023-05-14T08:47:54;27.33;;;24.60;;
18931;SDS011;9598;50.954;3.112;2023-05-14T08:52:57;28.05;;;25.13;;
18931;SDS011;9598;50.954;3.112;2023-05-14T08:58:01;27.63;;;24.65;;
18931;SDS011;9598;50.954;3.112;2023-05-14T09:03:03;26.17;;;23.15;;
18931;SDS011;9598;50.954;3.112;2023-05-14T09:08:07;23.17;;;20.83;;
18931;SDS011;9598;50.954;3.112;2023-05-14T09:13:10;23.25;;;20.10;;
18931;SDS011;9598;50.954;3.112;2023-05-14T09:18:12;22.42;;;20.08;;
18931;SDS011;9598;50.954;3.112;2023-05-14T09:23:15;20.75;;;18.65;;
18931;SDS011;9598;50.954;3.112;2023-05-14T09:28:19;21.58;;;19.30;;
18931;SDS011;9598;50.954;3.112;2023-05-14T09:33:27;22.27;;;19.98;;
18931;SDS011;9598;50.954;3.112;2023-05-14T09:38:30;23.88;;;21.38;;
18931;SDS011;9598;50.954;3.112;2023-05-14T09:43:34;25.95;;;23.23;;
18931;SDS011;9598;50.954;3.112;2023-05-14T09:48:36;24.15;;;21.85;;
18931;SDS011;9598;50.954;3.112;2023-05-14T09:53:38;28.13;;;25.13;;
18931;SDS011;9598;50.954;3.112;2023-05-14T09:58:42;28.45;;;25.60;;
18931;SDS011;9598;50.954;3.112;2023-05-14T10:03:44;29.98;;;26.95;;
18931;SDS011;9598;50.954;3.112;2023-05-14T10:08:47;27.77;;;25.05;;
18931;SDS011;9598;50.954;3.112;2023-05-14T10:13:54;25.95;;;23.17;;
18931;SDS011;9598;50.954;3.112;2023-05-14T10:19:05;27.35;;;24.45;;
18931;SDS011;9598;50.954;3.112;2023-05-14T10:24:10;25.13;;;22.67;;
18931;SDS011;9598;50.954;3.112;2023-05-14T10:29:14;27.27;;;24.35;;
18931;SDS011;9598;50.954;3.112;2023-05-14T10:39:45;24.98;;;22.40;;
18931;SDS011;9598;50.954;3.112;2023-05-14T10:44:51;24.08;;;21.67;;
18931;SDS011;9598;50.954;3.112;2023-05-14T10:49:55;23.20;;;21.10;;
18931;SDS011;9598;50.954;3.112;2023-05-14T10:55:00;22.20;;;20.13;;
18931;SDS011;9598;50.954;3.112;2023-05-14T11:00:07;23.55;;;21.23;;
18931;SDS011;9598;50.954;3.112;2023-05-14T11:05:12;24.55;;;22.10;;
18931;SDS011;9598;50.954;3.112;2023-05-14T11:10:16;21.52;;;19.50;;
18931;SDS011;9598;50.954;3.112;2023-05-14T11:15:22;22.60;;;20.20;;
18931;SDS011;9598;50.954;3.112;2023-05-14T11:20:27;20.90;;;18.92;;
18931;SDS011;9598;50.954;3.112;2023-05-14T11:25:29;24.02;;;21.83;;
18931;SDS011;9598;50.954;3.112;2023-05-14T11:30:33;22.42;;;20.17;;
18931;SDS011;9598;50.954;3.112;2023-05-14T11:35:36;21.50;;;19.45;;
18931;SDS011;9598;50.954;3.112;2023-05-14T11:40:38;20.98;;;18.80;;
18931;SDS011;9598;50.954;3.112;2023-05-14T11:45:42;22.92;;;20.65;;
18931;SDS011;9598;50.954;3.112;2023-05-14T11:50:45;19.05;;;17.23;;
18931;SDS011;9598;50.954;3.112;2023-05-14T11:55:49;22.85;;;20.45;;
18931;SDS011;9598;50.954;3.112;2023-05-14T12:00:54;18.98;;;17.23;;
18931;SDS011;9598;50.954;3.112;2023-05-14T12:05:57;18.67;;;16.88;;
18931;SDS011;9598;50.954;3.112;2023-05-14T12:11:00;18.83;;;17.05;;
18931;SDS011;9598;50.954;3.112;2023-05-14T12:16:04;17.95;;;16.15;;
18931;SDS011;9598;50.954;3.112;2023-05-14T12:21:06;21.60;;;19.60;;
18931;SDS011;9598;50.954;3.112;2023-05-14T12:26:11;20.60;;;18.63;;
18931;SDS011;9598;50.954;3.112;2023-05-14T12:31:15;17.83;;;16.10;;
18931;SDS011;9598;50.954;3.112;2023-05-14T12:36:17;18.98;;;17.17;;
18931;SDS011;9598;50.954;3.112;2023-05-14T12:41:19;18.48;;;16.75;;
18931;SDS011;9598;50.954;3.112;2023-05-14T12:46:24;19.05;;;17.35;;
18931;SDS011;9598;50.954;3.112;2023-05-14T12:51:26;19.38;;;17.58;;
18931;SDS011;9598;50.954;3.112;2023-05-14T12:56:29;21.17;;;19.00;;
18931;SDS011;9598;50.954;3.112;2023-05-14T13:01:32;19.63;;;17.75;;
18931;SDS011;9598;50.954;3.112;2023-05-14T13:06:34;20.50;;;18.50;;
18931;SDS011;9598;50.954;3.112;2023-05-14T13:11:37;18.33;;;16.63;;
18931;SDS011;9598;50.954;3.112;2023-05-14T13:16:40;18.20;;;16.45;;
18931;SDS011;9598;50.954;3.112;2023-05-14T13:21:43;18.77;;;16.95;;
18931;SDS011;9598;50.954;3.112;2023-05-14T13:26:45;17.67;;;16.15;;
18931;SDS011;9598;50.954;3.112;2023-05-14T13:31:48;19.55;;;17.63;;
18931;SDS011;9598;50.954;3.112;2023-05-14T13:36:50;18.83;;;17.17;;
18931;SDS011;9598;50.954;3.112;2023-05-14T13:41:53;18.10;;;16.40;;
18931;SDS011;9598;50.954;3.112;2023-05-14T13:46:57;18.55;;;16.73;;
18931;SDS011;9598;50.954;3.112;2023-05-14T13:51:59;17.33;;;15.65;;
18931;SDS011;9598;50.954;3.112;2023-05-14T13:57:01;15.43;;;14.13;;
18931;SDS011;9598;50.954;3.112;2023-05-14T14:02:05;16.77;;;14.98;;
18931;SDS011;9598;50.954;3.112;2023-05-14T14:07:07;18.20;;;16.45;;
18931;SDS011;9598;50.954;3.112;2023-05-14T14:12:09;17.25;;;15.65;;
18931;SDS011;9598;50.954;3.112;2023-05-14T14:17:13;19.00;;;17.08;;
18931;SDS011;9598;50.954;3.112;2023-05-14T14:22:15;20.73;;;18.70;;
18931;SDS011;9598;50.954;3.112;2023-05-14T14:27:17;19.58;;;17.52;;
18931;SDS011;9598;50.954;3.112;2023-05-14T14:32:21;18.65;;;17.10;;
18931;SDS011;9598;50.954;3.112;2023-05-14T14:37:23;19.40;;;17.38;;
18931;SDS011;9598;50.954;3.112;2023-05-14T14:42:25;19.58;;;17.52;;
18931;SDS011;9598;50.954;3.112;2023-05-14T14:47:29;19.85;;;18.10;;
18931;SDS011;9598;50.954;3.112;2023-05-14T14:52:31;18.92;;;16.35;;
18931;SDS011;9598;50.954;3.112;2023-05-14T14:57:33;19.15;;;17.42;;
18931;SDS011;9598;50.954;3.112;2023-05-14T15:02:37;19.27;;;17.38;;
18931;SDS011;9598;50.954;3.112;2023-05-14T15:07:41;18.15;;;16.25;;
18931;SDS011;9598;50.954;3.112;2023-05-14T15:12:44;19.55;;;17.75;;
18931;SDS011;9598;50.954;3.112;2023-05-14T15:17:49;21.98;;;19.90;;
18931;SDS011;9598;50.954;3.112;2023-05-14T15:22:51;20.73;;;18.90;;
18931;SDS011;9598;50.954;3.112;2023-05-14T15:27:54;19.25;;;17.55;;
18931;SDS011;9598;50.954;3.112;2023-05-14T15:32:57;21.83;;;19.63;;
18931;SDS011;9598;50.954;3.112;2023-05-14T15:37:59;19.10;;;17.33;;
18931;SDS011;9598;50.954;3.112;2023-05-14T15:43:01;20.88;;;18.98;;
18931;SDS011;9598;50.954;3.112;2023-05-14T15:48:05;20.98;;;19.05;;
18931;SDS011;9598;50.954;3.112;2023-05-14T15:53:07;21.10;;;18.92;;
18931;SDS011;9598;50.954;3.112;2023-05-14T15:58:09;20.95;;;18.95;;
18931;SDS011;9598;50.954;3.112;2023-05-14T16:03:13;23.65;;;19.92;;
18931;SDS011;9598;50.954;3.112;2023-05-14T16:08:15;19.23;;;17.42;;
18931;SDS011;9598;50.954;3.112;2023-05-14T16:13:17;19.30;;;17.27;;
18931;SDS011;9598;50.954;3.112;2023-05-14T16:18:21;20.67;;;18.73;;
18931;SDS011;9598;50.954;3.112;2023-05-14T16:23:24;19.50;;;17.88;;
18931;SDS011;9598;50.954;3.112;2023-05-14T16:28:26;19.15;;;16.50;;
18931;SDS011;9598;50.954;3.112;2023-05-14T16:33:30;17.20;;;15.75;;
18931;SDS011;9598;50.954;3.112;2023-05-14T16:38:32;15.93;;;14.48;;
18931;SDS011;9598;50.954;3.112;2023-05-14T16:43:34;15.32;;;13.93;;
18931;SDS011;9598;50.954;3.112;2023-05-14T16:48:38;16.80;;;15.02;;
18931;SDS011;9598;50.954;3.112;2023-05-14T16:53:40;15.23;;;13.93;;
18931;SDS011;9598;50.954;3.112;2023-05-14T16:58:42;15.73;;;14.27;;
18931;SDS011;9598;50.954;3.112;2023-05-14T17:03:45;15.35;;;13.95;;
18931;SDS011;9598;50.954;3.112;2023-05-14T17:08:47;16.58;;;15.07;;
18931;SDS011;9598;50.954;3.112;2023-05-14T17:13:50;16.15;;;14.68;;
18931;SDS011;9598;50.954;3.112;2023-05-14T17:18:54;15.32;;;13.93;;
18931;SDS011;9598;50.954;3.112;2023-05-14T17:23:56;15.82;;;14.45;;
18931;SDS011;9598;50.954;3.112;2023-05-14T17:28:58;16.80;;;15.20;;
18931;SDS011;9598;50.954;3.112;2023-05-14T17:34:02;21.55;;;19.73;;
18931;SDS011;9598;50.954;3.112;2023-05-14T17:39:04;19.92;;;18.02;;
18931;SDS011;9598;50.954;3.112;2023-05-14T17:44:06;20.77;;;18.88;;
18931;SDS011;9598;50.954;3.112;2023-05-14T17:49:10;19.48;;;17.73;;
18931;SDS011;9598;50.954;3.112;2023-05-14T17:54:12;19.75;;;17.83;;
18931;SDS011;9598;50.954;3.112;2023-05-14T17:59:14;18.83;;;17.23;;
18931;SDS011;9598;50.954;3.112;2023-05-14T18:04:18;18.58;;;17.08;;
18931;SDS011;9598;50.954;3.112;2023-05-14T18:09:20;19.67;;;17.92;;
18931;SDS011;9598;50.954;3.112;2023-05-14T18:14:22;20.10;;;18.38;;
18931;SDS011;9598;50.954;3.112;2023-05-14T18:19:26;20.48;;;18.63;;
18931;SDS011;9598;50.954;3.112;2023-05-14T18:24:28;21.83;;;19.92;;
18931;SDS011;9598;50.954;3.112;2023-05-14T18:29:30;21.45;;;19.50;;
18931;SDS011;9598;50.954;3.112;2023-05-14T18:34:34;23.05;;;20.92;;
18931;SDS011;9598;50.954;3.112;2023-05-14T18:39:36;21.65;;;19.75;;
18931;SDS011;9598;50.954;3.112;2023-05-14T18:44:38;22.85;;;21.00;;
18931;SDS011;9598;50.954;3.112;2023-05-14T18:49:44;21.65;;;19.73;;
18931;SDS011;9598;50.954;3.112;2023-05-14T18:54:46;19.73;;;18.02;;
18931;SDS011;9598;50.954;3.112;2023-05-14T18:59:49;19.67;;;17.88;;
18931;SDS011;9598;50.954;3.112;2023-05-14T19:04:52;18.88;;;17.13;;
18931;SDS011;9598;50.954;3.112;2023-05-14T19:09:54;19.17;;;17.58;;
18931;SDS011;9598;50.954;3.112;2023-05-14T19:14:56;17.35;;;15.88;;
18931;SDS011;9598;50.954;3.112;2023-05-14T19:20:00;19.60;;;17.80;;
18931;SDS011;9598;50.954;3.112;2023-05-14T19:25:03;17.63;;;16.05;;
18931;SDS011;9598;50.954;3.112;2023-05-14T19:30:06;18.73;;;17.02;;
18931;SDS011;9598;50.954;3.112;2023-05-14T19:35:11;18.90;;;17.40;;
18931;SDS011;9598;50.954;3.112;2023-05-14T19:40:13;20.67;;;19.00;;
18931;SDS011;9598;50.954;3.112;2023-05-14T19:45:15;19.58;;;17.75;;
18931;SDS011;9598;50.954;3.112;2023-05-14T19:50:18;21.10;;;19.33;;
18931;SDS011;9598;50.954;3.112;2023-05-14T19:55:21;20.90;;;19.10;;
18931;SDS011;9598;50.954;3.112;2023-05-14T20:00:23;21.27;;;19.42;;
18931;SDS011;9598;50.954;3.112;2023-05-14T20:05:26;21.27;;;19.58;;
18931;SDS011;9598;50.954;3.112;2023-05-14T20:10:28;24.10;;;21.98;;
18931;SDS011;9598;50.954;3.112;2023-05-14T20:15:31;23.70;;;21.63;;
18931;SDS011;9598;50.954;3.112;2023-05-14T20:20:34;25.95;;;23.55;;
18931;SDS011;9598;50.954;3.112;2023-05-14T20:25:36;23.88;;;21.65;;
18931;SDS011;9598;50.954;3.112;2023-05-14T20:30:38;22.85;;;21.05;;
18931;SDS011;9598;50.954;3.112;2023-05-14T20:35:42;23.00;;;20.88;;
18931;SDS011;9598;50.954;3.112;2023-05-14T20:40:44;22.90;;;20.90;;
18931;SDS011;9598;50.954;3.112;2023-05-14T20:45:47;22.63;;;20.58;;
18931;SDS011;9598;50.954;3.112;2023-05-14T20:50:50;22.48;;;20.35;;
18931;SDS011;9598;50.954;3.112;2023-05-14T20:55:52;21.60;;;19.65;;
18931;SDS011;9598;50.954;3.112;2023-05-14T21:00:54;19.02;;;17.38;;
18931;SDS011;9598;50.954;3.112;2023-05-14T21:05:58;20.88;;;19.00;;
18931;SDS011;9598;50.954;3.112;2023-05-14T21:11:02;20.63;;;18.83;;
18931;SDS011;9598;50.954;3.112;2023-05-14T21:16:04;22.75;;;20.55;;
18931;SDS011;9598;50.954;3.112;2023-05-14T21:21:08;21.17;;;19.38;;
18931;SDS011;9598;50.954;3.112;2023-05-14T21:26:10;20.85;;;18.95;;
18931;SDS011;9598;50.954;3.112;2023-05-14T21:31:13;23.83;;;21.73;;
18931;SDS011;9598;50.954;3.112;2023-05-14T21:36:16;24.35;;;22.20;;
18931;SDS011;9598;50.954;3.112;2023-05-14T21:41:19;24.23;;;22.13;;
18931;SDS011;9598;50.954;3.112;2023-05-14T21:46:21;21.92;;;19.92;;
18931;SDS011;9598;50.954;3.112;2023-05-14T21:51:26;23.23;;;21.20;;
18931;SDS011;9598;50.954;3.112;2023-05-14T21:56:28;22.85;;;20.92;;
18931;SDS011;9598;50.954;3.112;2023-05-14T22:01:30;24.42;;;22.05;;
18931;SDS011;9598;50.954;3.112;2023-05-14T22:06:33;23.40;;;21.30;;
18931;SDS011;9598;50.954;3.112;2023-05-14T22:11:36;24.10;;;21.83;;
18931;SDS011;9598;50.954;3.112;2023-05-14T22:16:38;24.52;;;22.42;;
18931;SDS011;9598;50.954;3.112;2023-05-14T22:21:42;26.48;;;24.23;;
18931;SDS011;9598;50.954;3.112;2023-05-14T22:26:44;26.98;;;24.67;;
18931;SDS011;9598;50.954;3.112;2023-05-14T22:31:46;28.23;;;25.63;;
18931;SDS011;9598;50.954;3.112;2023-05-14T22:36:50;29.30;;;26.63;;
18931;SDS011;9598;50.954;3.112;2023-05-14T22:41:52;29.48;;;26.88;;
18931;SDS011;9598;50.954;3.112;2023-05-14T22:46:54;30.55;;;27.75;;
18931;SDS011;9598;50.954;3.112;2023-05-14T22:51:57;29.80;;;27.20;;
18931;SDS011;9598;50.954;3.112;2023-05-14T22:57:00;32.80;;;29.70;;
18931;SDS011;9598;50.954;3.112;2023-05-14T23:02:02;30.70;;;27.80;;
18931;SDS011;9598;50.954;3.112;2023-05-14T23:07:07;31.77;;;28.75;;
18931;SDS011;9598;50.954;3.112;2023-05-14T23:12:09;31.73;;;28.90;;
18931;SDS011;9598;50.954;3.112;2023-05-14T23:17:11;32.75;;;29.60;;
18931;SDS011;9598;50.954;3.112;2023-05-14T23:22:14;34.13;;;30.70;;
18931;SDS011;9598;50.954;3.112;2023-05-14T23:27:16;33.83;;;30.63;;
18931;SDS011;9598;50.954;3.112;2023-05-14T23:32:18;35.08;;;31.88;;
18931;SDS011;9598;50.954;3.112;2023-05-14T23:37:22;37.42;;;33.88;;
18931;SDS011;9598;50.954;3.112;2023-05-14T23:42:24;36.60;;;32.97;;
18931;SDS011;9598;50.954;3.112;2023-05-14T23:47:26;38.25;;;34.35;;
18931;SDS011;9598;50.954;3.112;2023-05-14T23:52:30;41.22;;;36.70;;
18931;SDS011;9598;50.954;3.112;2023-05-14T23:57:32;72.65;;;43.80;;
